Time;durP1;ratioP1;P1;durP2;ratioP2;P2;SDS_P1;SDS_P2;PMS_P1;PMS_P2;Temp;Humidity;BMP_temperature;BMP_pressure;BME280_temperature;BME280_humidity;BME280_pressure;Samples;Min_cycle;Max_cycle;Signal;HPM_P1;HPM_P2
2023/09/12 00:00:44;;;;;;;4.80;4.15;;;21.10;92.80;;;;;;4967752;28;20287;-78
2023/09/12 00:03:10;;;;;;;4.80;4.22;;;20.90;93.50;;;;;;4974960;28;20041;-79
2023/09/12 00:05:36;;;;;;;6.07;4.00;;;21.00;94.50;;;;;;4973328;28;20027;-78
2023/09/12 00:08:03;;;;;;;5.65;4.60;;;21.00;95.40;;;;;;4965243;28;20496;-79
2023/09/12 00:10:29;;;;;;;7.15;4.47;;;21.00;94.20;;;;;;4973643;28;20149;-78
2023/09/12 00:12:55;;;;;;;5.57;5.07;;;21.00;93.80;;;;;;4970981;28;20049;-78
2023/09/12 00:15:20;;;;;;;5.45;4.93;;;20.90;94.40;;;;;;4969501;28;20485;-79
2023/09/12 00:17:48;;;;;;;6.63;5.05;;;20.90;94.50;;;;;;4967539;28;20062;-78
2023/09/12 00:20:14;;;;;;;5.70;5.15;;;20.90;94.10;;;;;;4971836;28;20046;-77
2023/09/12 00:22:39;;;;;;;9.02;5.15;;;20.80;94.30;;;;;;4970599;28;20038;-78
2023/09/12 00:25:06;;;;;;;5.10;4.10;;;20.80;94.30;;;;;;4975907;28;20035;-79
2023/09/12 00:27:31;;;;;;;5.32;4.35;;;20.80;93.90;;;;;;4970051;28;20475;-77
2023/09/12 00:29:57;;;;;;;5.45;4.32;;;20.80;93.90;;;;;;4972569;28;20058;-78
2023/09/12 00:32:22;;;;;;;5.05;4.50;;;20.80;93.80;;;;;;4989885;28;20395;-78
2023/09/12 00:34:48;;;;;;;7.05;4.80;;;20.70;93.80;;;;;;4971779;28;20683;-77
2023/09/12 00:37:14;;;;;;;7.20;4.45;;;20.50;93.60;;;;;;4957206;28;20043;-77
2023/09/12 00:39:39;;;;;;;4.40;3.92;;;20.60;94.40;;;;;;4956103;28;20444;-77
2023/09/12 00:42:07;;;;;;;6.82;3.83;;;20.70;94.30;;;;;;4973199;28;20060;-78
2023/09/12 00:44:33;;;;;;;4.63;4.20;;;20.80;94.90;;;;;;4957132;28;20466;-78
2023/09/12 00:46:58;;;;;;;5.63;4.43;;;20.80;94.20;;;;;;4974350;28;20034;-78
2023/09/12 00:49:24;;;;;;;7.10;4.88;;;20.70;95.60;;;;;;4956948;28;20058;-77
2023/09/12 00:51:49;;;;;;;6.03;5.20;;;20.70;95.00;;;;;;4976855;28;20031;-79
2023/09/12 00:54:15;;;;;;;6.18;5.60;;;20.60;95.20;;;;;;4960612;28;20499;-78
2023/09/12 00:56:40;;;;;;;6.97;5.82;;;20.60;95.40;;;;;;4959082;28;20437;-79
2023/09/12 00:59:06;;;;;;;10.57;7.03;;;20.50;95.40;;;;;;4971178;28;20518;-78
2023/09/12 01:01:32;;;;;;;10.68;6.75;;;20.50;95.80;;;;;;4989169;28;20089;-78
2023/09/12 01:03:57;;;;;;;8.38;6.88;;;20.50;95.30;;;;;;4974531;28;20061;-78
2023/09/12 01:06:25;;;;;;;10.40;6.35;;;20.50;95.70;;;;;;4974929;28;20030;-78
2023/09/12 01:08:51;;;;;;;8.93;5.85;;;20.50;95.80;;;;;;4973011;28;20027;-78
2023/09/12 01:11:17;;;;;;;7.05;5.80;;;20.50;95.60;;;;;;4972073;28;20027;-78
2023/09/12 01:13:42;;;;;;;8.02;7.03;;;20.50;96.50;;;;;;4970648;28;20041;-78
2023/09/12 01:16:08;;;;;;;9.38;7.13;;;20.50;95.80;;;;;;4971429;28;20380;-78
2023/09/12 01:18:33;;;;;;;9.85;7.00;;;20.50;97.40;;;;;;4986844;28;20086;-78
2023/09/12 01:21:24;;;;;;;8.10;6.10;;;20.50;96.90;;;;;;4975362;28;20085;-77
2023/09/12 01:23:52;;;;;;;8.63;6.85;;;20.50;95.80;;;;;;4969034;28;20486;-77
2023/09/12 01:26:29;;;;;;;6.85;6.15;;;20.50;96.30;;;;;;4972299;28;20026;-78
2023/09/12 01:28:55;;;;;;;8.55;5.22;;;20.60;95.90;;;;;;4952961;28;20105;-77
2023/09/12 01:31:20;;;;;;;9.13;4.82;;;20.60;95.20;;;;;;4970439;28;20031;-77
2023/09/12 01:33:46;;;;;;;7.35;5.70;;;20.70;94.50;;;;;;4971629;28;20604;-77
2023/09/12 01:36:12;;;;;;;13.77;7.07;;;20.60;94.40;;;;;;4969149;28;20664;-78
2023/09/12 01:38:37;;;;;;;10.15;7.15;;;20.50;94.40;;;;;;4953330;28;20061;-78
2023/09/12 01:41:03;;;;;;;9.38;7.35;;;20.50;95.70;;;;;;4973205;28;20070;-78
2023/09/12 01:43:28;;;;;;;7.85;6.63;;;20.50;96.60;;;;;;4974894;28;20069;-78
2023/09/12 01:45:55;;;;;;;13.68;7.53;;;20.40;96.10;;;;;;4975730;28;20028;-77
2023/09/12 01:48:33;;;;;;;11.63;9.40;;;20.40;95.90;;;;;;4970053;28;20034;-78
2023/09/12 01:51:00;;;;;;;9.85;8.63;;;20.30;96.00;;;;;;4971444;28;20503;-77
2023/09/12 01:53:25;;;;;;;17.83;10.15;;;20.30;96.40;;;;;;4972594;28;20069;-78
2023/09/12 01:55:51;;;;;;;14.13;10.55;;;20.30;98.30;;;;;;4974828;28;20467;-77
2023/09/12 01:58:17;;;;;;;15.38;12.07;;;20.30;97.80;;;;;;4974850;28;21029;-78
2023/09/12 02:00:42;;;;;;;17.65;13.27;;;20.20;96.00;;;;;;4952211;28;20043;-78
2023/09/12 02:03:08;;;;;;;11.43;10.23;;;20.20;96.70;;;;;;4975746;28;20066;-77
2023/09/12 02:05:33;;;;;;;19.02;11.65;;;20.20;96.30;;;;;;4969931;28;20045;-79
2023/09/12 02:08:01;;;;;;;15.13;11.93;;;20.30;95.80;;;;;;4986625;28;20043;-79
2023/09/12 02:10:27;;;;;;;13.38;11.15;;;20.20;96.00;;;;;;4970538;28;20038;-78
2023/09/12 02:12:52;;;;;;;16.17;13.15;;;20.20;96.80;;;;;;4974146;28;20042;-78
2023/09/12 02:15:18;;;;;;;15.48;13.48;;;20.20;97.00;;;;;;4972264;28;20384;-78
2023/09/12 02:17:43;;;;;;;19.55;14.88;;;20.20;96.20;;;;;;4968099;28;20205;-78
2023/09/12 02:20:09;;;;;;;22.40;15.13;;;20.20;96.80;;;;;;4951624;28;20049;-78
2023/09/12 02:22:35;;;;;;;23.23;16.92;;;20.20;96.70;;;;;;4968353;28;20043;-78
2023/09/12 02:25:01;;;;;;;27.33;19.38;;;20.30;96.60;;;;;;4969289;28;20027;-79
2023/09/12 02:27:27;;;;;;;22.40;16.67;;;20.20;97.10;;;;;;4970424;28;20043;-79
2023/09/12 02:29:52;;;;;;;21.88;16.65;;;20.40;97.30;;;;;;4965631;28;20073;-77
2023/09/12 02:32:18;;;;;;;20.58;16.67;;;20.20;96.00;;;;;;4955476;28;20037;-78
2023/09/12 02:34:43;;;;;;;20.23;16.55;;;20.20;95.70;;;;;;4950555;28;20679;-78
2023/09/12 02:37:09;;;;;;;19.30;15.27;;;20.30;95.10;;;;;;4972169;28;20049;-77
2023/09/12 02:39:35;;;;;;;22.63;14.73;;;20.30;95.60;;;;;;4968357;28;20153;-78
2023/09/12 02:42:00;;;;;;;15.80;14.00;;;20.20;95.60;;;;;;4987138;28;20605;-78
2023/09/12 02:44:26;;;;;;;12.90;9.48;;;20.20;95.00;;;;;;4955651;28;20588;-78
2023/09/12 02:46:51;;;;;;;12.52;10.15;;;20.20;94.90;;;;;;4969644;28;20049;-79
2023/09/12 02:49:17;;;;;;;19.50;13.13;;;20.20;94.80;;;;;;4971982;28;20034;-78
2023/09/12 02:51:42;;;;;;;15.52;12.18;;;20.40;96.00;;;;;;4969950;28;20425;-78
2023/09/12 02:54:08;;;;;;;12.05;9.70;;;20.40;95.20;;;;;;4966694;28;20109;-78
2023/09/12 02:56:34;;;;;;;17.23;11.57;;;20.40;95.40;;;;;;4970010;28;20029;-78
2023/09/12 02:58:59;;;;;;;23.98;15.02;;;20.60;95.70;;;;;;4971007;28;20034;-78
2023/09/12 03:01:27;;;;;;;17.13;13.75;;;20.40;96.10;;;;;;4969998;28;20038;-78
2023/09/12 03:03:53;;;;;;;19.90;13.13;;;20.20;97.40;;;;;;4967135;28;20035;-79
2023/09/12 03:06:18;;;;;;;18.85;12.70;;;20.30;95.10;;;;;;4973241;28;20042;-78
2023/09/12 03:08:44;;;;;;;18.45;14.05;;;20.30;95.60;;;;;;4966345;28;20050;-77
2023/09/12 03:11:10;;;;;;;15.15;13.48;;;20.20;95.60;;;;;;4967921;28;20031;-77
2023/09/12 03:13:36;;;;;;;17.90;13.40;;;20.20;95.60;;;;;;4970432;28;20065;-78
2023/09/12 03:16:05;;;;;;;21.50;13.48;;;20.20;96.60;;;;;;4967324;28;20034;-78
2023/09/12 03:18:31;;;;;;;20.80;14.32;;;20.20;96.70;;;;;;4971093;28;20039;-78
2023/09/12 03:20:56;;;;;;;17.25;12.98;;;20.20;96.10;;;;;;4969094;28;20449;-77
2023/09/12 03:23:22;;;;;;;11.85;9.50;;;20.10;96.10;;;;;;4953853;28;20511;-78
2023/09/12 03:25:47;;;;;;;17.05;12.30;;;20.20;95.80;;;;;;4972449;28;20038;-77
2023/09/12 03:28:13;;;;;;;14.88;12.52;;;20.30;96.30;;;;;;4986744;28;20046;-77
2023/09/12 03:30:38;;;;;;;18.45;12.45;;;20.30;96.40;;;;;;4970946;28;20033;-78
2023/09/12 03:33:04;;;;;;;19.23;13.70;;;20.10;96.40;;;;;;4971356;28;20390;-77
2023/09/12 03:35:31;;;;;;;20.73;14.00;;;20.10;97.20;;;;;;4970453;28;20039;-78
2023/09/12 03:37:56;;;;;;;19.83;13.45;;;20.00;97.80;;;;;;4969641;28;20035;-77
2023/09/12 03:40:22;;;;;;;15.77;13.95;;;19.90;96.40;;;;;;4968399;28;20038;-78
2023/09/12 03:42:48;;;;;;;21.10;15.65;;;20.00;96.20;;;;;;4972359;28;20054;-77
2023/09/12 03:45:13;;;;;;;17.98;12.82;;;19.70;96.30;;;;;;4971599;28;20049;-78
2023/09/12 03:47:39;;;;;;;14.75;11.40;;;19.70;97.20;;;;;;4972154;28;20354;-78
2023/09/12 03:50:05;;;;;;;13.40;9.88;;;19.70;97.60;;;;;;4971253;28;20034;-78
2023/09/12 03:52:30;;;;;;;16.90;12.93;;;19.80;96.90;;;;;;4970403;28;20034;-78
2023/09/12 03:54:56;;;;;;;20.60;15.00;;;19.80;97.60;;;;;;4972465;28;20026;-77
2023/09/12 03:57:22;;;;;;;19.80;14.38;;;19.60;96.90;;;;;;4973199;28;20038;-78
2023/09/12 03:59:47;;;;;;;18.40;15.18;;;19.50;96.90;;;;;;4957449;28;20048;-77
2023/09/12 04:02:13;;;;;;;17.67;14.90;;;19.60;97.20;;;;;;4976149;28;20079;-78
2023/09/12 04:04:39;;;;;;;21.85;15.45;;;19.60;96.90;;;;;;4972261;28;20035;-78
2023/09/12 04:07:05;;;;;;;17.48;13.93;;;19.60;97.30;;;;;;4972760;28;20050;-77
2023/09/12 04:09:31;;;;;;;11.00;9.40;;;19.60;97.00;;;;;;4974617;28;20498;-78
2023/09/12 04:11:56;;;;;;;16.17;13.98;;;19.50;97.20;;;;;;4953874;28;20050;-78
2023/09/12 04:14:22;;;;;;;18.52;14.60;;;19.50;97.20;;;;;;4985704;28;20483;-77
2023/09/12 04:16:47;;;;;;;21.58;14.55;;;19.50;97.30;;;;;;4975150;28;20030;-78
2023/09/12 04:19:16;;;;;;;18.73;14.25;;;19.50;97.20;;;;;;4973232;28;20121;-78
2023/09/12 04:21:42;;;;;;;16.35;14.25;;;19.50;97.90;;;;;;4976293;28;20030;-78
2023/09/12 04:24:08;;;;;;;12.32;10.55;;;19.50;99.20;;;;;;4974771;28;20053;-78
2023/09/12 04:26:34;;;;;;;17.25;14.27;;;19.50;96.80;;;;;;4972515;28;20046;-78
2023/09/12 04:28:59;;;;;;;15.07;12.77;;;19.40;97.80;;;;;;4958634;28;20419;-77
2023/09/12 04:31:25;;;;;;;16.02;11.50;;;19.50;96.30;;;;;;4972995;28;20034;-77
2023/09/12 04:33:52;;;;;;;15.80;12.55;;;19.50;96.60;;;;;;4970575;28;20525;-77
2023/09/12 04:36:17;;;;;;;14.43;12.77;;;19.50;97.80;;;;;;4972395;28;20043;-77
2023/09/12 04:38:43;;;;;;;18.42;13.23;;;19.40;97.30;;;;;;4967745;28;20406;-78
2023/09/12 04:41:14;;;;;;;19.02;12.43;;;19.40;98.00;;;;;;4974891;28;20022;-77
2023/09/12 04:43:39;;;;;;;16.98;13.75;;;19.30;98.70;;;;;;4959066;28;20497;-78
2023/09/12 04:46:05;;;;;;;12.85;10.10;;;19.20;97.40;;;;;;4973869;28;20050;-78
2023/09/12 04:48:31;;;;;;;16.58;10.68;;;19.30;98.60;;;;;;4969748;28;20043;-78
2023/09/12 04:50:56;;;;;;;15.68;11.30;;;19.40;99.20;;;;;;4973235;28;20027;-77
2023/09/12 04:53:22;;;;;;;13.82;10.65;;;19.40;98.30;;;;;;4975288;28;20027;-77
2023/09/12 04:55:49;;;;;;;11.82;9.88;;;19.60;99.00;;;;;;4977012;28;20050;-77
2023/09/12 04:58:15;;;;;;;14.05;10.95;;;19.40;99.70;;;;;;4971304;28;20800;-78
2023/09/12 05:00:40;;;;;;;10.27;8.75;;;19.40;98.90;;;;;;4955238;28;20089;-78
2023/09/12 05:03:06;;;;;;;14.43;10.73;;;19.50;98.40;;;;;;4973590;28;20041;-77
2023/09/12 05:05:35;;;;;;;12.85;10.38;;;19.50;98.70;;;;;;4971088;28;20486;-78
2023/09/12 05:08:01;;;;;;;12.18;9.48;;;19.50;99.70;;;;;;4954659;28;20529;-78
2023/09/12 05:10:27;;;;;;;9.80;8.45;;;19.50;99.20;;;;;;4947722;28;20112;-78
2023/09/12 05:12:53;;;;;;;10.65;7.90;;;19.50;99.70;;;;;;4968386;28;20552;-77
2023/09/12 05:15:20;;;;;;;12.40;7.00;;;19.60;99.90;;;;;;4972488;28;20133;-79
2023/09/12 05:17:46;;;;;;;9.13;7.07;;;19.70;99.50;;;;;;4970968;28;20575;-79
2023/09/12 05:20:11;;;;;;;11.13;8.02;;;19.80;99.90;;;;;;4955004;28;20435;-78
2023/09/12 05:22:37;;;;;;;9.85;6.72;;;19.80;99.90;;;;;;4955635;28;20142;-78
2023/09/12 05:25:03;;;;;;;7.50;6.28;;;19.90;98.70;;;;;;4967224;28;20073;-76
2023/09/12 05:27:29;;;;;;;17.75;10.18;;;20.00;98.60;;;;;;4968915;28;20050;-77
2023/09/12 05:29:54;;;;;;;71.25;13.70;;;19.90;98.40;;;;;;4972719;28;20133;-78
2023/09/12 05:32:20;;;;;;;73.95;14.30;;;19.10;99.30;;;;;;4968904;28;20026;-77
2023/09/12 05:34:45;;;;;;;16.58;12.70;;;18.60;99.90;;;;;;4969151;28;20031;-79
2023/09/12 05:37:11;;;;;;;18.73;12.90;;;18.40;99.90;;;;;;4974647;28;20041;-79
2023/09/12 05:39:36;;;;;;;16.90;12.75;;;18.60;99.90;;;;;;4969784;28;20031;-78
2023/09/12 05:42:02;;;;;;;19.42;13.20;;;18.70;99.90;;;;;;4970118;28;20050;-78
2023/09/12 05:44:28;;;;;;;17.75;13.18;;;18.90;99.90;;;;;;4972249;28;20487;-78
2023/09/12 05:46:53;;;;;;;18.40;13.25;;;19.00;99.90;;;;;;4970201;28;20039;-79
2023/09/12 05:49:19;;;;;;;12.10;9.82;;;19.00;99.90;;;;;;4969917;28;20059;-78
2023/09/12 05:51:45;;;;;;;10.25;8.38;;;19.10;99.90;;;;;;4972614;28;20089;-79
2023/09/12 05:54:13;;;;;;;14.10;9.60;;;19.30;99.90;;;;;;4947554;28;20055;-78
2023/09/12 05:56:39;;;;;;;10.35;8.25;;;19.30;99.90;;;;;;4971799;28;20031;-78
2023/09/12 05:59:06;;;;;;;16.05;8.65;;;19.30;99.90;;;;;;4957380;28;20045;-78
2023/09/12 06:01:31;;;;;;;13.90;8.38;;;19.40;99.90;;;;;;4973203;28;20836;-78
2023/09/12 06:03:57;;;;;;;12.23;7.40;;;19.30;99.90;;;;;;4970644;28;20019;-78
2023/09/12 06:06:22;;;;;;;10.93;8.25;;;19.50;99.90;;;;;;4969269;28;20065;-79
2023/09/12 06:08:48;;;;;;;12.68;8.65;;;19.50;99.90;;;;;;4970664;28;20039;-80
2023/09/12 06:11:14;;;;;;;15.88;11.52;;;19.60;99.90;;;;;;4973479;28;20392;-80
2023/09/12 06:13:39;;;;;;;20.98;14.15;;;19.40;99.90;;;;;;4969721;28;20022;-80
2023/09/12 06:16:05;;;;;;;11.82;10.38;;;19.20;99.90;;;;;;4959398;28;20562;-79
2023/09/12 06:18:32;;;;;;;13.85;11.02;;;19.30;99.90;;;;;;4970425;28;20049;-79
2023/09/12 06:21:03;;;;;;;13.88;10.57;;;19.30;99.90;;;;;;4973240;28;20031;-79
2023/09/12 06:23:30;;;;;;;13.07;8.05;;;19.40;99.90;;;;;;4963699;28;20030;-81
2023/09/12 06:25:55;;;;;;;15.60;8.48;;;19.50;99.90;;;;;;4968876;28;20557;-79
2023/09/12 06:28:28;;;;;;;9.95;6.43;;;19.60;99.90;;;;;;4971073;28;20118;-80
2023/09/12 06:30:54;;;;;;;9.88;7.15;;;19.60;99.90;;;;;;4971793;28;20026;-79
2023/09/12 06:33:19;;;;;;;14.52;7.68;;;19.60;99.90;;;;;;4974522;28;20078;-79
2023/09/12 06:35:49;;;;;;;78.90;14.65;;;19.60;99.90;;;;;;4955371;28;20509;-79
2023/09/12 06:38:15;;;;;;;143.73;24.33;;;19.00;99.90;;;;;;4965278;28;20031;-79
2023/09/12 06:40:42;;;;;;;56.10;26.50;;;18.30;99.90;;;;;;4986527;28;20525;-79
2023/09/12 06:43:08;;;;;;;27.80;19.58;;;18.10;99.90;;;;;;4969784;28;20104;-79
2023/09/12 06:45:36;;;;;;;26.10;17.52;;;18.20;99.90;;;;;;4970232;28;25683;-79
2023/09/12 06:48:02;;;;;;;24.25;15.95;;;18.20;99.90;;;;;;4971873;28;20038;-79
2023/09/12 06:50:27;;;;;;;18.42;11.23;;;18.30;99.90;;;;;;4957379;28;20244;-80
2023/09/12 06:52:53;;;;;;;15.02;9.75;;;18.40;99.90;;;;;;4966725;28;20057;-78
2023/09/12 06:55:18;;;;;;;12.80;9.80;;;18.30;99.90;;;;;;4973909;28;20407;-79
2023/09/12 06:57:45;;;;;;;10.15;7.03;;;18.20;99.90;;;;;;4972657;28;20546;-79
2023/09/12 07:00:11;;;;;;;11.57;8.15;;;18.30;99.90;;;;;;4938181;28;20097;-79
2023/09/12 07:02:38;;;;;;;11.10;5.88;;;18.40;99.90;;;;;;4968585;28;20364;-79
2023/09/12 07:05:04;;;;;;;8.68;5.82;;;18.60;99.90;;;;;;4969662;28;20030;-79
2023/09/12 07:07:30;;;;;;;7.13;5.40;;;18.80;99.90;;;;;;4970422;28;20031;-77
2023/09/12 07:09:56;;;;;;;8.13;5.88;;;18.70;99.90;;;;;;4969124;28;20803;-78
2023/09/12 07:12:22;;;;;;;13.20;6.13;;;18.80;99.90;;;;;;4970310;28;20030;-78
2023/09/12 07:14:47;;;;;;;10.52;6.60;;;18.80;99.90;;;;;;4957689;28;20065;-78
2023/09/12 07:17:13;;;;;;;9.02;7.32;;;18.80;99.90;;;;;;4956336;28;20100;-81
2023/09/12 07:19:38;;;;;;;11.43;7.05;;;18.80;99.90;;;;;;4973654;28;20042;-78
2023/09/12 07:22:04;;;;;;;8.25;6.57;;;18.80;99.90;;;;;;4967630;28;20054;-78
2023/09/12 07:24:29;;;;;;;5.10;4.60;;;18.80;99.90;;;;;;4970375;28;20101;-79
2023/09/12 07:26:55;;;;;;;9.25;5.82;;;18.90;99.90;;;;;;4967362;28;20142;-79
2023/09/12 07:29:21;;;;;;;9.15;5.68;;;18.90;99.90;;;;;;4950593;28;20042;-79
2023/09/12 07:31:46;;;;;;;43.78;7.00;;;18.90;99.90;;;;;;4971027;28;20116;-80
2023/09/12 07:34:14;;;;;;;8.73;5.78;;;18.90;99.90;;;;;;4988729;28;20486;-79
2023/09/12 07:36:40;;;;;;;16.67;6.07;;;18.80;99.90;;;;;;4971392;28;20070;-78
2023/09/12 07:39:06;;;;;;;8.50;5.93;;;18.80;99.90;;;;;;4955285;28;20205;-78
2023/09/12 07:41:32;;;;;;;9.23;6.38;;;18.90;99.90;;;;;;4968433;28;20093;-78
2023/09/12 07:43:57;;;;;;;9.57;5.50;;;19.00;99.90;;;;;;4968547;28;20027;-79
2023/09/12 07:46:23;;;;;;;10.68;6.88;;;19.00;99.90;;;;;;4954075;28;20042;-78
2023/09/12 07:48:48;;;;;;;12.02;6.53;;;19.10;99.90;;;;;;4968264;28;20109;-78
2023/09/12 07:51:14;;;;;;;10.95;5.85;;;19.30;99.90;;;;;;4974757;28;20035;-79
2023/09/12 07:53:40;;;;;;;10.98;6.05;;;19.50;99.90;;;;;;4966359;28;20031;-80
2023/09/12 07:56:06;;;;;;;14.93;6.65;;;19.70;99.90;;;;;;4952384;28;20079;-79
2023/09/12 07:58:32;;;;;;;12.95;7.88;;;19.80;99.90;;;;;;4968585;28;20582;-78
2023/09/12 08:00:57;;;;;;;10.05;6.38;;;20.00;99.90;;;;;;4969237;28;20098;-79
2023/09/12 08:03:23;;;;;;;9.93;7.53;;;20.10;99.90;;;;;;4953831;28;20031;-78
2023/09/12 08:05:58;;;;;;;10.38;6.70;;;20.20;99.90;;;;;;4987775;28;20041;-78
2023/09/12 08:08:24;;;;;;;7.88;7.07;;;20.40;99.90;;;;;;4968993;28;20035;-78
2023/09/12 08:10:49;;;;;;;10.60;6.75;;;20.50;99.90;;;;;;4974297;28;20077;-78
2023/09/12 08:13:15;;;;;;;13.65;8.95;;;20.60;99.90;;;;;;4971236;28;20080;-78
2023/09/12 08:15:40;;;;;;;12.18;9.32;;;20.70;99.90;;;;;;4955803;28;20398;-78
2023/09/12 08:18:06;;;;;;;11.98;9.88;;;20.70;99.90;;;;;;4970581;28;20111;-79
2023/09/12 08:20:32;;;;;;;9.88;7.88;;;20.60;99.90;;;;;;4970677;28;20111;-78
2023/09/12 08:22:57;;;;;;;11.13;8.25;;;20.70;99.90;;;;;;4955987;28;20042;-78
2023/09/12 08:25:24;;;;;;;11.63;8.05;;;20.70;99.90;;;;;;4973973;28;20088;-78
2023/09/12 08:27:50;;;;;;;16.27;9.63;;;20.70;99.90;;;;;;4973552;28;20054;-79
2023/09/12 08:30:15;;;;;;;16.25;11.32;;;20.80;99.90;;;;;;4971780;28;20119;-78
2023/09/12 08:32:43;;;;;;;16.23;11.27;;;20.80;99.90;;;;;;4971490;28;20135;-79
2023/09/12 08:35:10;;;;;;;12.57;10.73;;;20.90;99.90;;;;;;4967619;28;20039;-79
2023/09/12 08:37:36;;;;;;;11.23;9.43;;;20.90;99.90;;;;;;4969415;28;20034;-79
2023/09/12 08:40:01;;;;;;;9.20;7.80;;;21.00;99.90;;;;;;4954626;28;20116;-79
2023/09/12 08:42:28;;;;;;;9.50;6.22;;;21.00;99.90;;;;;;4952703;28;20022;-79
2023/09/12 08:44:53;;;;;;;11.43;8.57;;;21.10;99.90;;;;;;4974087;28;20035;-79
2023/09/12 08:47:19;;;;;;;8.45;7.55;;;21.20;99.90;;;;;;4958278;28;20511;-79
2023/09/12 08:49:45;;;;;;;7.65;6.20;;;21.30;99.90;;;;;;4973273;28;20038;-81
2023/09/12 08:52:10;;;;;;;9.50;7.65;;;21.40;99.90;;;;;;4984239;28;20109;-78
2023/09/12 08:54:36;;;;;;;8.82;7.15;;;21.50;99.90;;;;;;4969782;28;20070;-79
2023/09/12 08:57:03;;;;;;;8.13;6.20;;;21.50;99.90;;;;;;4975166;28;20042;-79
2023/09/12 08:59:29;;;;;;;7.13;5.32;;;21.60;99.90;;;;;;4958497;28;20054;-79
2023/09/12 09:01:55;;;;;;;6.25;5.28;;;21.70;99.90;;;;;;4971854;28;20962;-79
2023/09/12 09:04:21;;;;;;;8.50;5.93;;;21.80;99.90;;;;;;4973776;28;20372;-79
2023/09/12 09:06:46;;;;;;;8.85;6.28;;;21.70;99.90;;;;;;4972880;28;20122;-80
2023/09/12 09:09:12;;;;;;;7.32;6.60;;;21.80;99.90;;;;;;4970652;28;20038;-79
2023/09/12 09:11:38;;;;;;;5.03;4.45;;;21.90;99.90;;;;;;4971640;28;20634;-79
2023/09/12 09:14:03;;;;;;;11.75;7.80;;;22.00;99.90;;;;;;4972489;28;20125;-78
2023/09/12 09:16:29;;;;;;;6.25;4.78;;;22.10;99.90;;;;;;4955552;28;20026;-79
2023/09/12 09:19:01;;;;;;;4.20;3.80;;;22.30;99.90;;;;;;4969510;28;20051;-78
2023/09/12 09:21:30;;;;;;;6.18;5.10;;;22.40;99.90;;;;;;4966646;28;20042;-78
2023/09/12 09:23:55;;;;;;;14.02;6.35;;;22.90;99.90;;;;;;4972748;28;20433;-79
2023/09/12 09:26:21;;;;;;;11.27;5.85;;;22.80;99.90;;;;;;4973206;28;20031;-78
2023/09/12 09:29:06;;;;;;;3.85;3.40;;;22.60;99.90;;;;;;4971403;28;20035;-79
2023/09/12 09:31:32;;;;;;;7.32;4.93;;;22.90;99.90;;;;;;4953785;28;20046;-79
2023/09/12 09:33:58;;;;;;;5.38;4.53;;;23.10;99.90;;;;;;4971445;28;20046;-78
2023/09/12 09:36:24;;;;;;;5.53;4.15;;;23.00;99.90;;;;;;4958990;28;20478;-79
2023/09/12 09:38:49;;;;;;;6.00;4.70;;;23.10;99.90;;;;;;4972547;28;20077;-79
2023/09/12 09:41:15;;;;;;;6.55;4.60;;;23.10;99.90;;;;;;4971132;28;20034;-80
2023/09/12 09:43:40;;;;;;;8.10;5.68;;;23.20;99.90;;;;;;4972140;28;20038;-79
2023/09/12 09:46:06;;;;;;;5.03;4.28;;;23.30;99.90;;;;;;4958072;28;20027;-78
2023/09/12 09:48:32;;;;;;;5.70;3.88;;;23.50;99.90;;;;;;4971545;28;20034;-78
2023/09/12 09:51:01;;;;;;;4.97;3.58;;;23.60;99.90;;;;;;4976540;28;20113;-78
2023/09/12 09:53:27;;;;;;;4.45;2.97;;;23.70;99.90;;;;;;4973388;28;20126;-79
2023/09/12 09:56:11;;;;;;;2.78;2.47;;;24.00;99.90;;;;;;4969287;28;20454;-79
2023/09/12 09:58:57;;;;;;;3.10;2.80;;;24.50;99.90;;;;;;4956903;28;20034;-78
2023/09/12 10:01:24;;;;;;;4.53;2.90;;;24.50;99.90;;;;;;4960236;28;20035;-79
2023/09/12 10:03:50;;;;;;;4.07;2.60;;;24.50;99.90;;;;;;4974473;28;20030;-79
2023/09/12 10:06:17;;;;;;;3.80;2.13;;;24.60;99.90;;;;;;4972842;28;20086;-79
2023/09/12 10:08:44;;;;;;;3.45;1.80;;;24.60;99.90;;;;;;4969722;28;20045;-79
2023/09/12 10:11:10;;;;;;;3.65;2.20;;;24.70;99.90;;;;;;4970245;28;20765;-79
2023/09/12 10:13:37;;;;;;;2.30;2.10;;;24.70;99.90;;;;;;4952414;28;20475;-78
2023/09/12 10:16:05;;;;;;;2.75;1.98;;;24.70;99.90;;;;;;4970773;28;20038;-79
2023/09/12 10:18:35;;;;;;;4.25;3.20;;;24.80;99.90;;;;;;4973604;28;20042;-79
2023/09/12 10:21:07;;;;;;;3.58;2.78;;;24.90;99.90;;;;;;4970115;28;20557;-81
2023/09/12 10:23:41;;;;;;;3.03;2.63;;;25.00;99.90;;;;;;4972307;28;20074;-79
2023/09/12 10:26:09;;;;;;;3.17;2.92;;;25.00;99.90;;;;;;4971510;28;20039;-80
2023/09/12 10:28:35;;;;;;;5.30;2.13;;;25.00;99.90;;;;;;4972413;28;20222;-79
2023/09/12 10:31:00;;;;;;;3.25;2.13;;;25.10;99.90;;;;;;4972128;28;20378;-79
2023/09/12 10:33:31;;;;;;;5.57;2.40;;;25.00;99.90;;;;;;4973986;28;20062;-79
2023/09/12 10:35:58;;;;;;;3.85;2.40;;;25.10;99.90;;;;;;4971617;28;20451;-80
2023/09/12 10:38:23;;;;;;;3.15;2.53;;;25.00;99.90;;;;;;4971126;28;20421;-79
2023/09/12 10:40:49;;;;;;;2.22;2.03;;;25.10;99.90;;;;;;4972230;28;20037;-79
2023/09/12 10:43:14;;;;;;;2.92;2.10;;;25.20;99.90;;;;;;4968126;28;20618;-78
2023/09/12 10:45:40;;;;;;;2.42;1.75;;;25.20;99.90;;;;;;4969527;28;20598;-79
2023/09/12 10:48:06;;;;;;;3.85;2.47;;;25.50;99.90;;;;;;4986148;28;20595;-79
2023/09/12 10:50:32;;;;;;;4.05;2.15;;;25.40;99.90;;;;;;4957011;28;20034;-79
2023/09/12 10:53:11;;;;;;;4.00;2.22;;;25.30;99.90;;;;;;4967613;28;20030;-80
2023/09/12 10:55:37;;;;;;;4.75;2.47;;;25.50;99.90;;;;;;4969076;28;20125;-79
2023/09/12 10:58:03;;;;;;;3.47;3.00;;;25.50;99.90;;;;;;4971537;28;20550;-79
2023/09/12 11:00:28;;;;;;;2.60;2.40;;;25.70;99.90;;;;;;4970662;28;20482;-79
2023/09/12 11:02:54;;;;;;;2.58;2.13;;;26.00;99.90;;;;;;4969671;28;20121;-80
2023/09/12 11:05:29;;;;;;;2.13;1.92;;;26.10;99.90;;;;;;4971054;28;20046;-81
2023/09/12 11:07:58;;;;;;;4.93;2.10;;;26.30;99.90;;;;;;4971188;28;20046;-80
2023/09/12 11:10:24;;;;;;;2.38;2.15;;;26.50;99.90;;;;;;4959518;28;20035;-80
2023/09/12 11:12:53;;;;;;;3.45;2.17;;;26.70;99.90;;;;;;4944649;28;20641;-79
2023/09/12 11:15:20;;;;;;;4.57;2.35;;;26.80;99.90;;;;;;4970246;28;20030;-79
2023/09/12 11:17:47;;;;;;;3.03;2.47;;;26.90;99.90;;;;;;4953015;28;20071;-80
2023/09/12 11:20:13;;;;;;;3.85;2.53;;;27.10;99.90;;;;;;4971433;28;20523;-79
2023/09/12 11:22:40;;;;;;;3.42;2.53;;;27.20;99.90;;;;;;4970877;28;20414;-79
2023/09/12 11:25:19;;;;;;;2.25;2.05;;;27.20;99.90;;;;;;4952712;28;20379;-79
2023/09/12 11:27:51;;;;;;;2.95;2.65;;;27.30;99.90;;;;;;4970457;28;20046;-79
2023/09/12 11:30:23;;;;;;;3.17;2.20;;;27.40;99.90;;;;;;4966391;28;20038;-81
2023/09/12 11:32:50;;;;;;;2.75;2.50;;;27.50;99.90;;;;;;4986385;28;20413;-80
2023/09/12 11:35:16;;;;;;;4.47;2.45;;;27.70;99.90;;;;;;4971905;28;21442;-79
2023/09/12 11:37:48;;;;;;;5.20;2.95;;;27.80;99.90;;;;;;4967093;28;20495;-80
2023/09/12 11:40:14;;;;;;;3.15;2.45;;;28.00;99.90;;;;;;4969102;28;20070;-80
2023/09/12 11:42:40;;;;;;;4.63;3.42;;;28.10;99.90;;;;;;4969240;28;20062;-80
2023/09/12 11:45:09;;;;;;;4.38;2.60;;;28.10;99.90;;;;;;4971696;28;20113;-79
2023/09/12 11:47:34;;;;;;;3.38;2.80;;;28.30;99.90;;;;;;4968423;28;20039;-80
2023/09/12 11:50:00;;;;;;;3.65;3.08;;;28.30;99.90;;;;;;4967644;28;20573;-80
2023/09/12 11:52:26;;;;;;;3.55;3.25;;;28.40;99.90;;;;;;4957089;28;20034;-80
2023/09/12 11:54:53;;;;;;;4.65;4.07;;;28.50;99.90;;;;;;4956062;28;20035;-80
2023/09/12 11:57:18;;;;;;;3.60;3.28;;;28.50;99.90;;;;;;4968164;28;20034;-80
2023/09/12 11:59:51;;;;;;;5.22;4.10;;;28.70;99.90;;;;;;4984052;28;20530;-79
2023/09/12 12:02:17;;;;;;;5.78;5.28;;;28.70;99.90;;;;;;4957193;28;20038;-80
2023/09/12 12:04:42;;;;;;;5.07;4.55;;;28.60;99.90;;;;;;4972344;28;20389;-79
2023/09/12 12:07:09;;;;;;;6.82;3.90;;;28.60;99.90;;;;;;4970201;28;20046;-79
2023/09/12 12:09:34;;;;;;;3.28;3.00;;;28.60;99.90;;;;;;4972273;28;20033;-79
2023/09/12 12:12:13;;;;;;;4.32;3.92;;;28.80;99.20;;;;;;4968669;28;20113;-79
2023/09/12 12:14:39;;;;;;;6.55;4.90;;;29.00;99.90;;;;;;4971700;28;20081;-79
2023/09/12 12:17:16;;;;;;;5.20;4.20;;;28.90;99.90;;;;;;4969305;28;20043;-79
2023/09/12 12:19:45;;;;;;;4.75;4.28;;;29.10;99.90;;;;;;4953315;28;20390;-80
2023/09/12 12:22:10;;;;;;;3.25;2.95;;;29.00;99.90;;;;;;4977062;28;20055;-81
2023/09/12 12:24:46;;;;;;;3.28;2.72;;;29.30;99.60;;;;;;4974356;28;20105;-80
2023/09/12 12:27:12;;;;;;;4.40;3.20;;;29.60;97.30;;;;;;4973084;28;20892;-79
2023/09/12 12:29:39;;;;;;;3.80;3.42;;;30.10;97.40;;;;;;4957881;28;20110;-79
2023/09/12 12:32:05;;;;;;;5.55;3.70;;;29.70;98.70;;;;;;4962894;28;20043;-80
2023/09/12 12:34:36;;;;;;;5.18;4.15;;;29.50;98.40;;;;;;4976175;28;20082;-79